Time;durP1;ratioP1;P1;durP2;ratioP2;P2;SDS_P1;SDS_P2;PMS_P1;PMS_P2;Temp;Humidity;BMP_temperature;BMP_pressure;BME280_temperature;BME280_humidity;BME280_pressure;Samples;Min_cycle;Max_cycle;Signal;HPM_P1;HPM_P2
2023/07/25 00:01:05;;;;;;;7.10;4.90;;;16.50;62.70;;;;;;5033680;28;20391;-72
2023/07/25 00:03:30;;;;;;;13.05;5.68;;;16.50;61.40;;;;;;5033407;28;20414;-72
2023/07/25 00:05:56;;;;;;;8.30;5.70;;;16.50;60.20;;;;;;5034237;28;20374;-72
2023/07/25 00:08:22;;;;;;;11.68;6.20;;;16.50;59.40;;;;;;5034121;28;20471;-72
2023/07/25 00:10:47;;;;;;;10.13;5.70;;;16.50;59.30;;;;;;5033926;28;20879;-72
2023/07/25 00:13:13;;;;;;;12.20;5.00;;;16.50;58.10;;;;;;5033134;28;20387;-72
2023/07/25 00:15:38;;;;;;;11.40;5.20;;;16.50;58.20;;;;;;5033504;28;20386;-73
2023/07/25 00:18:04;;;;;;;10.40;5.50;;;16.40;58.30;;;;;;5033661;28;20422;-74
2023/07/25 00:20:31;;;;;;;12.60;5.50;;;16.40;58.00;;;;;;5032496;28;20873;-72
2023/07/25 00:22:57;;;;;;;9.60;4.73;;;16.40;58.50;;;;;;5015455;28;20431;-70
2023/07/25 00:25:23;;;;;;;9.47;4.63;;;16.40;57.10;;;;;;5033137;28;20402;-72
2023/07/25 00:27:48;;;;;;;6.68;4.35;;;16.50;56.70;;;;;;5033377;28;20398;-72
2023/07/25 00:30:14;;;;;;;12.00;4.30;;;16.50;56.50;;;;;;5033253;28;20387;-72
2023/07/25 00:32:39;;;;;;;11.98;4.50;;;16.50;55.30;;;;;;5032960;28;20389;-71
2023/07/25 00:35:05;;;;;;;10.50;3.90;;;16.50;54.80;;;;;;5033268;28;20942;-72
2023/07/25 00:37:31;;;;;;;6.87;3.70;;;16.50;54.70;;;;;;5033298;28;20513;-72
2023/07/25 00:39:57;;;;;;;12.43;3.50;;;16.50;54.80;;;;;;5015660;28;20436;-71
2023/07/25 00:42:23;;;;;;;14.07;3.70;;;16.40;53.60;;;;;;5033392;28;20387;-71
2023/07/25 00:44:49;;;;;;;6.57;3.73;;;16.40;54.70;;;;;;5033807;28;20423;-71
2023/07/25 00:47:16;;;;;;;11.57;4.00;;;16.40;54.50;;;;;;5032839;28;20410;-72
2023/07/25 00:49:42;;;;;;;9.05;4.00;;;16.40;54.00;;;;;;5032829;28;20394;-71
2023/07/25 00:52:09;;;;;;;7.07;3.92;;;16.40;55.10;;;;;;5032377;28;20422;-72
2023/07/25 00:54:38;;;;;;;8.40;4.00;;;16.40;54.60;;;;;;5014901;28;20434;-71
2023/07/25 00:57:04;;;;;;;8.15;3.95;;;16.40;55.30;;;;;;5032885;28;20718;-71
2023/07/25 00:59:30;;;;;;;12.02;4.15;;;16.40;56.40;;;;;;5032802;28;20387;-70
2023/07/25 01:01:55;;;;;;;7.87;3.70;;;16.40;55.70;;;;;;5032596;28;20395;-73
2023/07/25 01:04:21;;;;;;;7.43;3.53;;;16.50;56.30;;;;;;5046503;22;20814;-72
2023/07/25 01:06:47;;;;;;;7.95;4.10;;;16.50;56.50;;;;;;5032609;28;20394;-71
2023/07/25 01:09:14;;;;;;;12.80;4.40;;;16.50;57.10;;;;;;5032621;28;20872;-71
2023/07/25 01:11:40;;;;;;;16.70;4.38;;;16.50;59.10;;;;;;5032181;28;20430;-72
2023/07/25 01:14:06;;;;;;;7.35;4.50;;;16.60;59.20;;;;;;5032411;28;20872;-70
2023/07/25 01:16:33;;;;;;;11.35;4.80;;;16.60;59.80;;;;;;5032222;28;20473;-72
2023/07/25 01:19:00;;;;;;;7.93;4.82;;;16.60;59.70;;;;;;5032426;28;20422;-71
2023/07/25 01:21:25;;;;;;;16.40;5.40;;;16.60;60.30;;;;;;5031770;28;20387;-71
2023/07/25 01:23:51;;;;;;;12.00;5.30;;;16.50;60.40;;;;;;5031773;28;20399;-71
2023/07/25 01:26:17;;;;;;;9.83;4.83;;;16.50;61.00;;;;;;5031535;28;20807;-71
2023/07/25 01:28:42;;;;;;;9.85;5.20;;;16.40;61.50;;;;;;5032011;28;20441;-71
2023/07/25 01:31:08;;;;;;;10.60;4.93;;;16.40;61.70;;;;;;5031832;28;20387;-72
2023/07/25 01:33:33;;;;;;;10.00;5.03;;;16.30;63.60;;;;;;5031478;28;20385;-71
2023/07/25 01:36:00;;;;;;;7.70;4.50;;;16.20;64.00;;;;;;5031881;28;20787;-70
2023/07/25 01:38:26;;;;;;;10.40;4.85;;;16.20;63.60;;;;;;5031851;28;20752;-70
2023/07/25 01:40:52;;;;;;;13.80;4.67;;;16.20;64.10;;;;;;5031526;28;20478;-71
2023/07/25 01:43:17;;;;;;;12.32;4.00;;;16.20;63.40;;;;;;5031353;28;20440;-71
2023/07/25 01:45:43;;;;;;;11.40;4.50;;;16.20;63.40;;;;;;5031688;28;20418;-73
2023/07/25 01:48:08;;;;;;;9.10;4.97;;;16.20;65.10;;;;;;5031580;28;20386;-72
2023/07/25 01:50:34;;;;;;;12.57;4.53;;;16.20;62.20;;;;;;5031518;28;20911;-72
2023/07/25 01:52:59;;;;;;;10.02;4.40;;;16.20;62.40;;;;;;5031261;28;20387;-70
2023/07/25 01:55:25;;;;;;;14.55;4.75;;;16.10;62.10;;;;;;5031433;28;20394;-71
2023/07/25 01:57:50;;;;;;;15.30;4.90;;;16.00;62.20;;;;;;5031582;28;20399;-71
2023/07/25 02:00:16;;;;;;;12.47;5.27;;;16.00;60.60;;;;;;5031288;28;20394;-73
2023/07/25 02:02:41;;;;;;;11.65;4.55;;;15.90;61.40;;;;;;5031187;28;20395;-71
2023/07/25 02:05:07;;;;;;;18.55;5.40;;;15.80;58.10;;;;;;5031394;28;20835;-71
2023/07/25 02:07:33;;;;;;;11.02;4.82;;;15.80;58.30;;;;;;5031094;28;20392;-72
2023/07/25 02:09:58;;;;;;;13.10;4.80;;;15.70;59.20;;;;;;5031283;28;20383;-71
2023/07/25 02:12:26;;;;;;;15.73;5.00;;;15.60;58.30;;;;;;5031195;28;20379;-72
2023/07/25 02:14:51;;;;;;;14.27;4.93;;;15.50;59.20;;;;;;5031774;28;20395;-71
2023/07/25 02:17:19;;;;;;;19.55;5.30;;;15.50;59.70;;;;;;5032003;28;20387;-72
2023/07/25 02:19:45;;;;;;;14.05;4.88;;;15.40;60.50;;;;;;5032219;28;20387;-71
2023/07/25 02:22:11;;;;;;;9.65;4.60;;;15.30;60.90;;;;;;5032333;28;20441;-72
2023/07/25 02:24:36;;;;;;;11.85;4.90;;;15.30;62.30;;;;;;5033316;28;20461;-72
2023/07/25 02:27:02;;;;;;;12.40;4.60;;;15.20;62.10;;;;;;5035364;28;20443;-70
2023/07/25 02:29:28;;;;;;;9.82;3.92;;;15.10;64.10;;;;;;5036560;28;20390;-71
2023/07/25 02:31:53;;;;;;;12.90;4.70;;;15.10;63.70;;;;;;5041479;28;20470;-71
2023/07/25 02:34:19;;;;;;;13.00;4.70;;;15.10;63.40;;;;;;5045858;28;20399;-71
2023/07/25 02:36:44;;;;;;;15.60;4.47;;;15.00;64.20;;;;;;5041159;28;20395;-71
2023/07/25 02:39:10;;;;;;;14.90;4.53;;;15.00;64.60;;;;;;5034097;28;20391;-71
2023/07/25 02:41:35;;;;;;;18.73;4.65;;;14.90;63.90;;;;;;5030899;28;20395;-71
2023/07/25 02:44:02;;;;;;;9.45;4.55;;;15.00;64.40;;;;;;5031495;28;20410;-71
2023/07/25 02:46:28;;;;;;;11.23;4.70;;;14.90;64.60;;;;;;5032221;28;20375;-70
2023/07/25 02:48:53;;;;;;;14.77;4.78;;;14.90;64.90;;;;;;5034579;28;20853;-71
2023/07/25 02:51:19;;;;;;;12.30;5.00;;;14.90;65.80;;;;;;5037110;28;20739;-72
2023/07/25 02:53:44;;;;;;;10.30;4.60;;;14.90;66.30;;;;;;5038949;28;20378;-71
2023/07/25 02:56:11;;;;;;;12.40;4.70;;;14.90;66.50;;;;;;5039478;28;20466;-71
2023/07/25 02:58:36;;;;;;;8.40;4.20;;;15.00;67.60;;;;;;5036928;28;20953;-72
2023/07/25 03:01:02;;;;;;;12.53;4.63;;;14.90;65.90;;;;;;5033127;28;20391;-71
2023/07/25 03:03:28;;;;;;;13.00;5.10;;;14.80;68.00;;;;;;5012973;28;20485;-71
2023/07/25 03:05:54;;;;;;;12.95;5.03;;;14.90;67.70;;;;;;5031356;28;20855;-71
2023/07/25 03:08:19;;;;;;;13.13;4.80;;;14.90;67.50;;;;;;5031449;28;20517;-71
2023/07/25 03:10:45;;;;;;;10.05;5.15;;;14.90;67.00;;;;;;5030607;28;20851;-70
2023/07/25 03:13:10;;;;;;;10.47;4.50;;;14.80;67.20;;;;;;5030230;28;20375;-71
2023/07/25 03:15:36;;;;;;;14.67;5.90;;;14.80;67.00;;;;;;5030335;28;20471;-72
2023/07/25 03:18:02;;;;;;;13.43;5.10;;;14.80;68.80;;;;;;5030637;28;20394;-70
2023/07/25 03:20:27;;;;;;;9.60;4.75;;;14.90;66.30;;;;;;5030444;28;20387;-71
2023/07/25 03:22:53;;;;;;;10.30;5.40;;;15.10;65.10;;;;;;5030119;28;20867;-73
2023/07/25 03:25:18;;;;;;;10.90;5.23;;;15.00;66.80;;;;;;5030209;28;20403;-71
2023/07/25 03:27:44;;;;;;;9.60;4.70;;;15.10;64.50;;;;;;5030052;28;20556;-72
2023/07/25 03:30:10;;;;;;;11.27;4.80;;;15.20;63.00;;;;;;5030425;28;20386;-71
2023/07/25 03:32:35;;;;;;;12.95;5.30;;;15.20;63.30;;;;;;5030232;28;21021;-71
2023/07/25 03:35:01;;;;;;;20.42;5.70;;;15.00;66.60;;;;;;5030983;28;20393;-72
2023/07/25 03:37:26;;;;;;;11.93;4.75;;;15.00;68.00;;;;;;5030450;28;20880;-72
2023/07/25 03:39:53;;;;;;;8.50;4.50;;;15.10;66.90;;;;;;5031002;28;20395;-70
2023/07/25 03:42:18;;;;;;;14.35;5.70;;;15.20;64.70;;;;;;5033274;28;20395;-71
2023/07/25 03:44:44;;;;;;;11.25;5.80;;;15.20;65.80;;;;;;5037349;28;20756;-71
2023/07/25 03:47:09;;;;;;;12.00;5.82;;;15.20;64.50;;;;;;5039882;28;20387;-71
2023/07/25 03:49:35;;;;;;;11.60;5.50;;;15.20;64.90;;;;;;5041886;28;20386;-70
2023/07/25 03:52:01;;;;;;;13.93;5.83;;;15.30;64.30;;;;;;5034003;28;20387;-72
2023/07/25 03:54:26;;;;;;;18.60;5.87;;;15.30;64.00;;;;;;5035034;28;20886;-71
2023/07/25 03:56:52;;;;;;;13.75;5.72;;;15.40;63.80;;;;;;5033935;28;20789;-72
2023/07/25 03:59:18;;;;;;;11.32;6.60;;;15.30;64.80;;;;;;5015910;28;20391;-70
2023/07/25 04:01:44;;;;;;;15.70;5.80;;;15.30;65.80;;;;;;5033769;28;20920;-71
2023/07/25 04:04:09;;;;;;;12.03;5.97;;;15.30;65.40;;;;;;5033730;28;20414;-72
2023/07/25 04:06:36;;;;;;;17.73;6.00;;;15.20;68.30;;;;;;5022336;28;20564;-71
2023/07/25 04:09:02;;;;;;;13.38;6.53;;;15.20;68.70;;;;;;5032321;28;20490;-72
2023/07/25 04:11:27;;;;;;;17.67;5.83;;;15.20;66.70;;;;;;5034155;28;20422;-75
2023/07/25 04:13:53;;;;;;;8.98;5.53;;;15.20;66.80;;;;;;5022463;28;20408;-75
2023/07/25 04:16:18;;;;;;;11.38;6.45;;;15.20;68.30;;;;;;5014155;28;20945;-74
2023/07/25 04:18:44;;;;;;;11.83;6.20;;;15.30;65.70;;;;;;5024367;28;20396;-75
2023/07/25 04:21:10;;;;;;;11.33;6.13;;;15.30;65.20;;;;;;5018874;28;20396;-78
2023/07/25 04:23:36;;;;;;;12.95;6.20;;;15.30;65.60;;;;;;5016871;28;20401;-75
2023/07/25 04:26:02;;;;;;;14.57;6.25;;;15.20;66.60;;;;;;5013649;28;20476;-74
2023/07/25 04:28:27;;;;;;;13.73;6.97;;;15.10;66.40;;;;;;5013601;28;20476;-75
2023/07/25 04:30:53;;;;;;;16.93;6.90;;;15.10;68.40;;;;;;5013468;28;20452;-76
2023/07/25 04:33:19;;;;;;;18.77;6.57;;;15.00;70.00;;;;;;5020897;28;20399;-73
2023/07/25 04:35:45;;;;;;;16.87;6.20;;;15.10;67.00;;;;;;5033037;28;20383;-73
2023/07/25 04:38:12;;;;;;;18.23;6.43;;;15.10;66.10;;;;;;5032547;28;20454;-72
2023/07/25 04:40:38;;;;;;;18.33;7.30;;;15.10;66.10;;;;;;5032864;28;20449;-72
2023/07/25 04:43:03;;;;;;;15.48;6.30;;;15.10;65.50;;;;;;5032721;28;20464;-73
2023/07/25 04:45:29;;;;;;;16.23;5.90;;;15.10;64.70;;;;;;5032423;28;20884;-73
2023/07/25 04:47:54;;;;;;;17.77;6.90;;;15.10;64.80;;;;;;5032744;28;20376;-72
2023/07/25 04:50:20;;;;;;;14.50;6.07;;;15.10;63.10;;;;;;5032603;28;20386;-73
2023/07/25 04:52:45;;;;;;;14.73;6.50;;;15.10;63.10;;;;;;5014798;28;20468;-73
2023/07/25 04:55:11;;;;;;;16.33;5.90;;;15.20;63.10;;;;;;5015049;28;20695;-74
2023/07/25 04:57:37;;;;;;;13.27;5.97;;;15.20;62.40;;;;;;5032711;28;20490;-72
2023/07/25 05:00:04;;;;;;;12.25;6.50;;;15.20;61.70;;;;;;5031439;28;20391;-73
2023/07/25 05:02:29;;;;;;;11.65;5.95;;;15.30;62.10;;;;;;5031925;28;20383;-73
2023/07/25 05:04:55;;;;;;;13.17;6.90;;;15.30;62.20;;;;;;5032926;28;20410;-74
2023/07/25 05:07:20;;;;;;;14.17;5.70;;;15.40;62.30;;;;;;5032495;28;20462;-73
2023/07/25 05:09:46;;;;;;;12.93;5.70;;;15.50;61.00;;;;;;5032241;28;20379;-73
2023/07/25 05:12:13;;;;;;;17.20;5.53;;;15.70;57.90;;;;;;5032433;28;20486;-73
2023/07/25 05:14:38;;;;;;;16.27;5.55;;;15.80;55.80;;;;;;5032693;28;20390;-73
2023/07/25 05:17:04;;;;;;;12.65;5.00;;;15.90;54.00;;;;;;5031974;28;20760;-73
2023/07/25 05:19:30;;;;;;;17.27;5.78;;;16.00;51.80;;;;;;5032051;28;20894;-74
2023/07/25 05:21:55;;;;;;;11.57;5.07;;;15.90;52.60;;;;;;5032053;28;20383;-72
2023/07/25 05:24:21;;;;;;;15.17;5.90;;;15.80;53.10;;;;;;5031725;28;20745;-74
2023/07/25 05:26:46;;;;;;;11.53;5.90;;;15.90;54.90;;;;;;5031936;28;20384;-73
2023/07/25 05:29:12;;;;;;;14.32;5.50;;;15.90;53.90;;;;;;5031870;28;20755;-74
2023/07/25 05:31:37;;;;;;;11.40;6.10;;;15.90;53.60;;;;;;5031786;28;20392;-73
2023/07/25 05:34:03;;;;;;;12.30;5.80;;;16.00;54.90;;;;;;5013903;28;20444;-73
2023/07/25 05:36:28;;;;;;;17.60;5.03;;;16.20;52.60;;;;;;5031669;28;20383;-73
2023/07/25 05:38:54;;;;;;;17.92;5.18;;;16.40;49.60;;;;;;5031858;28;20901;-74
2023/07/25 05:41:20;;;;;;;13.80;5.18;;;16.30;48.70;;;;;;5031716;28;20469;-73
2023/07/25 05:43:45;;;;;;;20.50;6.18;;;16.30;48.80;;;;;;5031456;28;20438;-72
2023/07/25 05:46:12;;;;;;;14.70;5.97;;;16.40;49.90;;;;;;5031341;28;20434;-73
2023/07/25 05:48:38;;;;;;;16.10;5.40;;;16.50;49.60;;;;;;5013650;28;20465;-73
2023/07/25 05:51:03;;;;;;;11.63;5.50;;;16.50;50.00;;;;;;5031597;28;20384;-72
2023/07/25 05:53:29;;;;;;;11.77;5.37;;;16.50;49.60;;;;;;5031553;28;20745;-74
2023/07/25 05:55:55;;;;;;;15.48;6.25;;;16.40;46.20;;;;;;5031602;28;20390;-73
2023/07/25 05:58:20;;;;;;;16.20;6.87;;;16.40;48.70;;;;;;5031533;28;20877;-73
2023/07/25 06:00:47;;;;;;;16.80;6.20;;;16.50;49.70;;;;;;5031351;28;20892;-73
2023/07/25 06:03:14;;;;;;;15.47;6.90;;;16.50;49.70;;;;;;5031097;28;20414;-73
2023/07/25 06:05:40;;;;;;;16.83;6.57;;;16.50;49.70;;;;;;5031394;28;20492;-73
2023/07/25 06:08:06;;;;;;;21.45;5.85;;;16.50;48.90;;;;;;5031666;28;20870;-73
2023/07/25 06:10:32;;;;;;;14.60;5.50;;;16.50;46.90;;;;;;5031973;28;20888;-73
2023/07/25 06:12:58;;;;;;;16.75;6.05;;;16.40;47.40;;;;;;5033138;28;20399;-74
2023/07/25 06:15:24;;;;;;;18.02;6.00;;;16.30;48.10;;;;;;5033389;28;20383;-72
2023/07/25 06:17:49;;;;;;;16.33;5.80;;;16.30;49.00;;;;;;5031661;28;20559;-73
2023/07/25 06:20:15;;;;;;;12.73;6.37;;;16.30;47.50;;;;;;5031072;28;20942;-72
2023/07/25 06:22:41;;;;;;;15.50;5.75;;;16.40;48.40;;;;;;5031116;28;20919;-73
2023/07/25 06:25:08;;;;;;;14.00;5.10;;;16.40;46.40;;;;;;5031086;28;20572;-74
2023/07/25 06:27:34;;;;;;;14.55;5.70;;;16.60;46.10;;;;;;5013275;28;20437;-73
2023/07/25 06:30:03;;;;;;;12.15;4.38;;;16.70;45.30;;;;;;5014087;28;20383;-73
2023/07/25 06:32:30;;;;;;;12.63;4.00;;;16.90;44.00;;;;;;5031211;28;20387;-74
2023/07/25 06:34:56;;;;;;;6.97;4.00;;;16.80;42.10;;;;;;5031087;28;20445;-73
2023/07/25 06:37:21;;;;;;;15.05;3.97;;;16.80;42.00;;;;;;5031430;28;20440;-73
2023/07/25 06:39:47;;;;;;;12.15;4.38;;;16.70;42.30;;;;;;5031424;28;20387;-73
2023/07/25 06:42:12;;;;;;;10.87;3.27;;;16.80;41.00;;;;;;5031066;28;20394;-73
2023/07/25 06:44:38;;;;;;;10.43;3.50;;;16.90;40.70;;;;;;5031546;28;20967;-73
2023/07/25 06:47:04;;;;;;;4.97;2.70;;;17.00;39.90;;;;;;5037963;28;20390;-72
2023/07/25 06:49:29;;;;;;;12.45;3.15;;;17.10;38.00;;;;;;5031020;28;20391;-72
2023/07/25 06:51:55;;;;;;;17.48;4.20;;;17.40;37.40;;;;;;5047788;28;20387;-72
2023/07/25 06:54:21;;;;;;;7.57;3.58;;;17.40;36.70;;;;;;5036992;28;20958;-73
2023/07/25 06:56:47;;;;;;;8.20;3.38;;;17.50;35.80;;;;;;5034301;28;20387;-73
2023/07/25 06:59:13;;;;;;;10.20;3.40;;;17.70;35.80;;;;;;5035020;28;20871;-73
2023/07/25 07:01:38;;;;;;;13.75;3.53;;;18.10;34.60;;;;;;5036267;28;20387;-73
2023/07/25 07:04:04;;;;;;;9.00;3.00;;;18.80;32.50;;;;;;5046238;22;20422;-72
2023/07/25 07:06:29;;;;;;;10.87;3.57;;;19.20;30.60;;;;;;5030309;28;20469;-72
2023/07/25 07:08:55;;;;;;;7.57;3.22;;;19.50;28.40;;;;;;5030259;28;20379;-72
2023/07/25 07:11:21;;;;;;;11.70;3.30;;;19.40;29.20;;;;;;5012114;28;20478;-73
2023/07/25 07:13:46;;;;;;;19.20;5.90;;;19.70;29.10;;;;;;5030016;28;20379;-73
2023/07/25 07:16:12;;;;;;;13.18;4.40;;;19.80;27.20;;;;;;5030477;28;20375;-73
2023/07/25 07:18:37;;;;;;;12.93;4.00;;;20.10;26.90;;;;;;5030480;28;20441;-72
2023/07/25 07:21:03;;;;;;;10.03;3.87;;;20.50;26.70;;;;;;5030433;28;20379;-72
2023/07/25 07:23:28;;;;;;;10.13;5.68;;;20.40;25.30;;;;;;5032531;28;20871;-73
2023/07/25 07:25:54;;;;;;;22.10;10.30;;;20.20;26.60;;;;;;5034891;28;20418;-72
2023/07/25 07:28:19;;;;;;;23.40;15.00;;;20.10;26.50;;;;;;5035010;28;20386;-72
2023/07/25 07:30:52;;;;;;;24.00;15.30;;;19.80;25.90;;;;;;5036016;28;20410;-72
2023/07/25 07:33:21;;;;;;;23.17;13.70;;;19.50;26.90;;;;;;5017482;28;20391;-72
2023/07/25 07:35:47;;;;;;;18.15;10.70;;;19.30;27.20;;;;;;5035862;28;20391;-73
2023/07/25 07:38:13;;;;;;;18.38;9.32;;;19.30;27.20;;;;;;5035256;28;20383;-72
2023/07/25 07:40:38;;;;;;;17.37;9.20;;;19.60;26.40;;;;;;5035393;28;20585;-72
2023/07/25 07:43:04;;;;;;;13.85;7.38;;;19.40;27.20;;;;;;5034083;28;20390;-71
2023/07/25 07:45:33;;;;;;;17.42;6.72;;;19.30;28.40;;;;;;5033638;28;20441;-73
2023/07/25 07:48:00;;;;;;;14.23;5.60;;;19.40;27.70;;;;;;5035190;28;20433;-72
2023/07/25 07:50:28;;;;;;;14.52;5.18;;;19.30;27.50;;;;;;5035047;28;20391;-73
2023/07/25 07:52:54;;;;;;;11.20;4.70;;;19.20;27.30;;;;;;5032964;28;20383;-73
2023/07/25 07:55:19;;;;;;;8.48;4.10;;;19.30;26.90;;;;;;5033464;28;20383;-72
2023/07/25 07:57:46;;;;;;;13.23;4.90;;;19.40;27.30;;;;;;5033561;28;20760;-72
2023/07/25 08:00:15;;;;;;;8.65;3.88;;;19.60;26.30;;;;;;5015586;28;20395;-72
2023/07/25 08:02:41;;;;;;;12.55;4.40;;;19.70;25.70;;;;;;5033049;28;20384;-72
2023/07/25 08:05:08;;;;;;;12.43;4.97;;;19.60;25.00;;;;;;5033326;28;20407;-73
2023/07/25 08:07:34;;;;;;;14.50;5.88;;;19.30;27.00;;;;;;5033166;28;20379;-73
2023/07/25 08:09:59;;;;;;;10.65;4.47;;;19.10;28.50;;;;;;5033263;28;20452;-73
2023/07/25 08:12:25;;;;;;;12.30;4.70;;;19.20;28.00;;;;;;5033227;28;20488;-73
2023/07/25 08:14:51;;;;;;;10.27;5.03;;;19.10;27.40;;;;;;5033392;28;20496;-73
2023/07/25 08:17:18;;;;;;;20.75;5.50;;;19.10;28.50;;;;;;5032964;28;20441;-73
2023/07/25 08:19:44;;;;;;;12.68;5.20;;;18.90;28.80;;;;;;5034046;28;20395;-72
2023/07/25 08:22:10;;;;;;;19.20;6.63;;;18.80;28.80;;;;;;5032923;28;20433;-72
2023/07/25 08:24:39;;;;;;;19.00;6.15;;;18.80;29.40;;;;;;5032466;28;20417;-72
2023/07/25 08:27:06;;;;;;;12.65;5.97;;;18.90;28.50;;;;;;5032797;28;20384;-73
2023/07/25 08:29:31;;;;;;;12.48;5.80;;;19.20;28.00;;;;;;5032547;28;20786;-73
2023/07/25 08:31:57;;;;;;;14.33;4.83;;;19.10;27.30;;;;;;5033115;28;20410;-73
2023/07/25 08:34:22;;;;;;;14.57;4.90;;;19.20;27.00;;;;;;5032366;28;20815;-73
2023/07/25 08:36:48;;;;;;;9.32;4.30;;;19.30;26.20;;;;;;5032913;28;20478;-72
2023/07/25 08:39:14;;;;;;;13.23;4.10;;;19.60;25.80;;;;;;5033081;28;20383;-74
2023/07/25 08:41:45;;;;;;;11.07;4.17;;;19.90;25.30;;;;;;5033367;28;20379;-72
2023/07/25 08:44:12;;;;;;;7.75;3.75;;;20.10;24.10;;;;;;5032804;28;20690;-72
2023/07/25 08:46:43;;;;;;;13.90;3.40;;;20.20;24.10;;;;;;5033103;28;20474;-73
2023/07/25 08:49:16;;;;;;;11.10;3.80;;;20.40;23.10;;;;;;5033244;28;20886;-73
2023/07/25 08:51:43;;;;;;;11.82;4.18;;;20.70;22.00;;;;;;5032453;28;20375;-72
2023/07/25 08:54:27;;;;;;;10.77;5.05;;;21.00;21.40;;;;;;5032406;28;20470;-72
2023/07/25 08:56:54;;;;;;;11.85;4.70;;;21.10;20.20;;;;;;5032666;28;20487;-72
2023/07/25 08:59:20;;;;;;;14.13;5.13;;;20.90;20.00;;;;;;5032435;28;20902;-72
2023/07/25 09:01:46;;;;;;;14.57;5.53;;;20.80;20.60;;;;;;5032032;28;20445;-72
2023/07/25 09:04:13;;;;;;;10.43;5.43;;;20.80;20.70;;;;;;5031853;28;20426;-72
2023/07/25 09:06:39;;;;;;;14.15;6.05;;;20.90;20.80;;;;;;5032054;28;20388;-73
2023/07/25 09:09:05;;;;;;;14.88;6.50;;;20.60;20.90;;;;;;5031954;28;20432;-73
2023/07/25 09:11:33;;;;;;;13.20;6.50;;;20.40;22.30;;;;;;5032119;28;20383;-73
2023/07/25 09:14:00;;;;;;;18.63;7.10;;;19.90;22.70;;;;;;5032105;28;20398;-72
2023/07/25 09:16:26;;;;;;;16.10;7.25;;;19.80;23.60;;;;;;5014533;28;20430;-72
2023/07/25 09:18:52;;;;;;;17.90;6.47;;;19.90;23.10;;;;;;5031819;28;20419;-73
2023/07/25 09:21:18;;;;;;;11.02;5.95;;;20.20;22.70;;;;;;5013675;28;20391;-73
2023/07/25 09:23:54;;;;;;;9.77;5.40;;;20.00;22.30;;;;;;5031560;28;20444;-73
2023/07/25 09:26:22;;;;;;;14.68;7.80;;;19.80;22.30;;;;;;5031456;28;20383;-71
2023/07/25 09:28:56;;;;;;;13.17;5.30;;;19.70;22.20;;;;;;5031803;28;20402;-73
2023/07/25 09:31:22;;;;;;;12.07;4.60;;;19.60;22.40;;;;;;5031443;28;20390;-72
2023/07/25 09:33:50;;;;;;;12.77;4.72;;;19.70;21.10;;;;;;5031677;28;21089;-73
2023/07/25 09:36:16;;;;;;;9.90;4.80;;;20.00;20.30;;;;;;5031643;28;20423;-73
2023/07/25 09:38:53;;;;;;;10.45;4.22;;;20.20;20.00;;;;;;5031762;28;20418;-72
2023/07/25 09:41:21;;;;;;;9.02;4.55;;;20.00;18.90;;;;;;5031573;28;20387;-73
2023/07/25 09:43:46;;;;;;;9.70;4.20;;;19.90;20.10;;;;;;5031828;28;20438;-73
2023/07/25 09:46:12;;;;;;;9.65;4.90;;;20.00;18.70;;;;;;5031484;28;20404;-72
2023/07/25 09:48:46;;;;;;;9.95;4.93;;;20.00;18.40;;;;;;5031406;28;20379;-72
2023/07/25 09:51:12;;;;;;;11.35;5.25;;;20.20;18.90;;;;;;5031323;28;20454;-72
2023/07/25 09:53:41;;;;;;;10.68;4.25;;;20.00;18.10;;;;;;5031346;28;20394;-72
2023/07/25 09:56:08;;;;;;;11.55;4.30;;;20.00;18.90;;;;;;5033327;28;20391;-73
2023/07/25 09:58:33;;;;;;;7.43;3.80;;;20.10;18.00;;;;;;5031508;28;20754;-72
2023/07/25 10:00:59;;;;;;;8.27;4.33;;;19.90;18.50;;;;;;5031285;28;20379;-72
2023/07/25 10:03:28;;;;;;;8.88;4.10;;;19.90;18.70;;;;;;5034000;28;20391;-72
2023/07/25 10:05:53;;;;;;;10.45;4.07;;;20.20;19.10;;;;;;5034899;28;20403;-72
2023/07/25 10:08:21;;;;;;;8.32;3.20;;;20.80;17.90;;;;;;5034363;28;20391;-73
2023/07/25 10:10:47;;;;;;;11.97;3.40;;;20.80;17.90;;;;;;5034952;28;20403;-72
2023/07/25 10:13:14;;;;;;;9.35;2.80;;;20.50;19.80;;;;;;5031652;28;20871;-73
2023/07/25 10:15:41;;;;;;;7.50;2.80;;;20.60;19.50;;;;;;5030750;28;20397;-73
2023/07/25 10:18:22;;;;;;;9.10;2.70;;;20.50;19.40;;;;;;5030977;28;20394;-73
2023/07/25 10:20:52;;;;;;;7.20;2.70;;;20.20;20.20;;;;;;5031188;28;20383;-72
2023/07/25 10:23:18;;;;;;;13.60;3.40;;;20.10;22.20;;;;;;5032293;28;21039;-72
2023/07/25 10:25:45;;;;;;;4.97;2.40;;;20.10;21.20;;;;;;5031068;28;20414;-72
2023/07/25 10:28:11;;;;;;;15.23;2.83;;;20.30;20.10;;;;;;5031453;28;20422;-74
2023/07/25 10:30:45;;;;;;;7.60;2.90;;;20.50;20.20;;;;;;5030782;28;20872;-73
2023/07/25 10:33:15;;;;;;;9.88;3.05;;;20.60;19.50;;;;;;5030308;28;20401;-73
2023/07/25 10:35:56;;;;;;;11.55;3.47;;;20.50;19.80;;;;;;4996800;28;20403;-73
2023/07/25 10:38:33;;;;;;;5.53;3.17;;;20.40;19.70;;;;;;5030369;28;20390;-72
2023/07/25 10:41:01;;;;;;;9.88;3.80;;;20.40;21.40;;;;;;5030262;28;20439;-72
2023/07/25 10:43:29;;;;;;;6.30;3.20;;;20.60;18.60;;;;;;5030528;28;20417;-73
2023/07/25 10:45:58;;;;;;;6.28;3.13;;;20.50;19.20;;;;;;5030305;28;20457;-73
2023/07/25 10:48:31;;;;;;;15.23;3.80;;;20.60;19.30;;;;;;5030238;28;20384;-73
2023/07/25 10:50:57;;;;;;;8.93;3.10;;;20.30;19.40;;;;;;5029960;28;20409;-74
2023/07/25 10:53:24;;;;;;;7.93;2.90;;;20.20;20.00;;;;;;5030442;28;20379;-73
2023/07/25 10:56:05;;;;;;;3.53;2.00;;;20.00;20.30;;;;;;5030481;28;20391;-73
2023/07/25 10:58:30;;;;;;;12.18;3.20;;;19.20;24.00;;;;;;5034240;28;20415;-74
2023/07/25 11:00:57;;;;;;;10.50;2.83;;;18.80;26.70;;;;;;5034558;28;20425;-72
2023/07/25 11:03:35;;;;;;;7.72;3.08;;;18.60;27.90;;;;;;5034175;28;20403;-73
2023/07/25 11:06:07;;;;;;;19.27;3.40;;;18.30;29.00;;;;;;5034796;28;20392;-74
2023/07/25 11:08:33;;;;;;;7.80;3.08;;;18.00;28.70;;;;;;5034636;28;20387;-74
2023/07/25 11:11:03;;;;;;;6.53;3.00;;;17.90;28.20;;;;;;5034369;28;20375;-73
2023/07/25 11:13:32;;;;;;;6.88;3.20;;;18.00;29.30;;;;;;5033947;28;20390;-74
2023/07/25 11:16:01;;;;;;;11.77;4.40;;;18.30;28.80;;;;;;5034433;28;20456;-72
2023/07/25 11:18:27;;;;;;;12.88;3.40;;;18.60;28.80;;;;;;5034059;28;20394;-74
2023/07/25 11:21:07;;;;;;;14.30;3.70;;;19.10;27.50;;;;;;5034047;28;20900;-75
2023/07/25 11:23:33;;;;;;;11.80;3.20;;;19.50;26.40;;;;;;5033916;28;20842;-73
2023/07/25 11:26:08;;;;;;;9.02;3.60;;;19.90;25.20;;;;;;5033836;28;20403;-72
2023/07/25 11:28:37;;;;;;;10.43;3.00;;;20.20;23.30;;;;;;5034380;28;20390;-76
2023/07/25 11:31:02;;;;;;;7.97;2.88;;;20.60;23.00;;;;;;5033917;28;20375;-73
2023/07/25 11:33:36;;;;;;;12.05;3.50;;;21.00;21.50;;;;;;5017247;28;20391;-73
2023/07/25 11:36:06;;;;;;;9.90;3.10;;;21.50;20.40;;;;;;5035165;28;20391;-74
2023/07/25 11:38:35;;;;;;;7.82;3.50;;;20.80;21.10;;;;;;5034895;28;20996;-73
2023/07/25 11:41:03;;;;;;;11.07;4.10;;;20.40;22.80;;;;;;5034560;28;20747;-73
2023/07/25 11:43:30;;;;;;;6.13;3.15;;;19.80;23.40;;;;;;5034560;28;20391;-75
2023/07/25 11:45:56;;;;;;;9.70;3.53;;;19.00;27.00;;;;;;5034735;28;20406;-74
2023/07/25 11:48:22;;;;;;;8.48;3.40;;;18.30;34.60;;;;;;5034719;28;20890;-74
2023/07/25 11:50:50;;;;;;;9.00;4.05;;;17.60;42.90;;;;;;5035041;28;20901;-74
2023/07/25 11:53:17;;;;;;;8.18;3.63;;;17.30;44.50;;;;;;5033758;28;20394;-73
2023/07/25 11:55:45;;;;;;;6.32;2.65;;;17.20;39.50;;;;;;5033870;28;20391;-73
2023/07/25 11:58:15;;;;;;;9.40;3.70;;;17.00;38.70;;;;;;5033140;28;20383;-73
2023/07/25 12:00:41;;;;;;;16.88;3.70;;;17.00;40.30;;;;;;5033463;28;20476;-73
2023/07/25 12:03:17;;;;;;;8.50;3.30;;;17.30;37.50;;;;;;5032645;28;20439;-74
2023/07/25 12:05:55;;;;;;;9.02;3.30;;;17.40;35.70;;;;;;5015302;28;20416;-73
2023/07/25 12:08:34;;;;;;;12.90;3.30;;;17.50;34.50;;;;;;5032204;28;20452;-74
2023/07/25 12:11:04;;;;;;;11.45;3.00;;;17.70;35.00;;;;;;5033098;28;20774;-72
2023/07/25 12:13:30;;;;;;;12.30;3.40;;;17.70;33.40;;;;;;5033022;28;20375;-72
2023/07/25 12:15:57;;;;;;;8.43;3.60;;;17.80;33.70;;;;;;5033385;28;20374;-72
2023/07/25 12:18:27;;;;;;;10.93;3.72;;;18.10;33.60;;;;;;5032956;28;20453;-73
2023/07/25 12:20:56;;;;;;;11.27;3.30;;;18.40;32.80;;;;;;5033045;28;20791;-74
2023/07/25 12:23:33;;;;;;;10.05;3.40;;;18.50;31.50;;;;;;5032693;28;20387;-74
2023/07/25 12:26:01;;;;;;;12.00;2.90;;;18.60;31.00;;;;;;5032650;28;20422;-74
2023/07/25 12:28:41;;;;;;;8.95;3.20;;;18.70;30.10;;;;;;5032650;28;20391;-73
2023/07/25 12:31:08;;;;;;;16.10;3.60;;;18.70;29.10;;;;;;5032481;28;20441;-74
2023/07/25 12:33:33;;;;;;;12.60;3.30;;;18.90;28.40;;;;;;5031409;28;20438;-74
2023/07/25 12:36:00;;;;;;;12.60;3.28;;;19.10;27.40;;;;;;5032035;28;20786;-73